Weather at Silverbell Army Heliport

Public forecast

Using degrees Fahrenheit for public forecast. Weather courtesy of forecast.io.

Closest aviation weather report (METAR) to Silverbell Army Heliport

Closest report is Marana Regional Airport, 9.0 nm (16.6 km) SE. Retrieved 2021/09/26 12:55 UTC (16 minutes ago):

KAVQ 261255Z AUTO 09005KT 10SM OVC095 20/18 A3000 RMK AO2 T02030176

Closest aviation forecast (TAF) to Silverbell Army Heliport

Forecast is more than 6 hours old.

Closest forecast is Davis Monthan Air Force Base, 31.3 nm (58.0 km) SE. Retrieved 2021/09/26 06:20 UTC (7 hours ago):

TAF KDMA 260600Z 2606/2712 11009KT 9999 BKN050 QNH3005INS TEMPO 2609/2611 9000 -SHRA BECMG 2613/2614 VRB06KT 9999 SCT060 QNH3006INS BECMG 2617/2618 24009KT 9999 SCT050 BKN110 QNH3001INS BECMG 2620/2621 22010KT 9999 VCSH SCT060 BKN090 QNH2999INS TEMPO 2621/2701 VRB18G28KT -TSRA BKN080CB BECMG 2701/2702 VRB06KT 9999 NSW SCT070 QNH3001INS TX29/2622Z TN19/2613Z